createdAt,value
2023-01-07T00:02:57.665Z,85.16
2023-01-07T00:06:01.046Z,85.11
2023-01-07T00:09:05.167Z,85.08
2023-01-07T00:12:07.014Z,85.08
2023-01-07T00:15:09.243Z,85.07
2023-01-07T00:18:11.041Z,85.08
2023-01-07T00:21:15.525Z,85.05
2023-01-07T00:24:18.467Z,85.02
2023-01-07T00:27:20.547Z,84.99
2023-01-07T00:30:22.412Z,84.97
2023-01-07T00:33:27.603Z,84.95
2023-01-07T00:36:32.430Z,84.94
2023-01-07T00:39:34.307Z,84.90
2023-01-07T00:42:56.204Z,84.89
2023-01-07T00:45:58.136Z,84.87
2023-01-07T00:49:01.355Z,84.83
2023-01-07T00:52:03.345Z,84.81
2023-01-07T00:55:05.539Z,84.81
2023-01-07T00:58:09.687Z,84.79
2023-01-07T01:01:12.103Z,84.77
2023-01-07T01:04:14.547Z,84.77
2023-01-07T01:07:16.399Z,84.81
2023-01-07T01:10:19.793Z,84.84
2023-01-07T01:13:21.986Z,84.85
2023-01-07T01:16:23.933Z,84.86
2023-01-07T01:19:25.887Z,84.92
2023-01-07T01:22:27.906Z,84.97
2023-01-07T01:25:29.750Z,84.99
2023-01-07T01:28:32.971Z,84.97
2023-01-07T01:31:34.947Z,84.97
2023-01-07T01:34:37.046Z,84.93
2023-01-07T01:37:38.939Z,84.92
2023-01-07T01:40:41.474Z,84.86
2023-01-07T01:43:44.860Z,84.78
2023-01-07T01:46:47.218Z,84.74
2023-01-07T01:50:12.380Z,84.72
2023-01-07T01:53:21.325Z,84.69
2023-01-07T01:56:31.378Z,84.62
2023-01-07T01:59:38.648Z,84.60
2023-01-07T02:02:56.422Z,84.56
2023-01-07T02:05:59.143Z,84.52
2023-01-07T02:09:01.287Z,84.52
2023-01-07T02:12:27.144Z,84.55
2023-01-07T02:15:45.826Z,84.54
2023-01-07T02:18:47.581Z,84.51
2023-01-07T02:22:27.533Z,84.49
2023-01-07T02:26:00.751Z,84.36
2023-01-07T02:29:05.348Z,84.18
2023-01-07T02:32:13.045Z,84.12
2023-01-07T02:35:36.071Z,84.10
2023-01-07T02:38:59.070Z,84.06
2023-01-07T02:42:36.283Z,84.05
2023-01-07T02:45:53.703Z,84.06
2023-01-07T02:49:09.121Z,84.06
2023-01-07T02:52:37.356Z,84.03
2023-01-07T02:56:06.990Z,83.96
2023-01-07T02:59:39.730Z,83.77
2023-01-07T03:02:58.747Z,83.60
2023-01-07T03:06:15.643Z,83.54
2023-01-07T03:09:40.225Z,83.28
2023-01-07T03:12:54.527Z,82.78
2023-01-07T03:16:09.667Z,82.15
2023-01-07T03:19:17.811Z,81.54
2023-01-07T03:22:23.608Z,81.09
2023-01-07T03:25:30.144Z,80.82
2023-01-07T03:28:39.964Z,80.69
2023-01-07T03:32:03.478Z,80.60
2023-01-07T03:35:06.112Z,80.37
2023-01-07T03:38:09.255Z,79.92
2023-01-07T03:41:31.342Z,79.61
2023-01-07T03:44:33.285Z,79.64
2023-01-07T03:47:37.817Z,79.68
2023-01-07T03:50:39.765Z,79.64
2023-01-07T03:53:41.821Z,79.58
2023-01-07T03:56:43.967Z,79.62
2023-01-07T03:59:45.802Z,79.57
2023-01-07T04:02:47.671Z,79.28
2023-01-07T04:05:55.992Z,79.12
2023-01-07T04:08:58.617Z,79.19
2023-01-07T04:12:01.083Z,79.12
2023-01-07T04:15:04.408Z,78.99
2023-01-07T04:18:06.840Z,79.02
2023-01-07T04:21:09.202Z,79.17
2023-01-07T04:24:11.253Z,79.18
2023-01-07T04:27:13.136Z,79.08
2023-01-07T04:30:15.356Z,79.01
2023-01-07T04:33:17.909Z,79.04
2023-01-07T04:36:20.463Z,79.08
2023-01-07T04:39:22.834Z,78.90
2023-01-07T04:42:24.978Z,78.79
2023-01-07T04:45:27.113Z,79.08
2023-01-07T04:48:29.611Z,79.22
2023-01-07T04:51:31.949Z,79.40
2023-01-07T04:54:34.296Z,79.41
2023-01-07T04:57:36.341Z,79.35
2023-01-07T05:00:38.263Z,79.52
2023-01-07T05:03:40.254Z,79.62
2023-01-07T05:06:42.820Z,79.68
2023-01-07T05:09:44.941Z,79.84
2023-01-07T05:12:47.296Z,79.90
2023-01-07T05:15:49.537Z,80.01
2023-01-07T05:18:51.476Z,80.05
2023-01-07T05:21:53.657Z,80.08
2023-01-07T05:24:55.954Z,80.10
2023-01-07T05:27:59.369Z,80.11
2023-01-07T05:31:01.739Z,80.23
2023-01-07T05:34:05.335Z,80.27
2023-01-07T05:37:07.788Z,80.24
2023-01-07T05:40:10.869Z,80.22
2023-01-07T05:43:12.904Z,80.17
2023-01-07T05:46:14.956Z,80.14
2023-01-07T05:49:17.165Z,80.20
2023-01-07T05:52:18.957Z,80.29
2023-01-07T05:55:20.922Z,80.34
2023-01-07T05:58:23.053Z,80.39
2023-01-07T06:01:24.929Z,80.44
2023-01-07T06:04:27.169Z,80.44
2023-01-07T06:07:29.063Z,80.49
2023-01-07T06:10:31.181Z,80.57
2023-01-07T06:13:33.504Z,80.66
2023-01-07T06:16:35.217Z,80.71
2023-01-07T06:19:37.285Z,80.72
2023-01-07T06:22:39.084Z,80.78
2023-01-07T06:25:40.889Z,80.84
2023-01-07T06:28:42.843Z,80.83
2023-01-07T06:31:44.629Z,80.84
2023-01-07T06:34:46.529Z,80.95
2023-01-07T06:37:48.461Z,81.06
2023-01-07T06:40:50.285Z,81.18
2023-01-07T06:43:52.110Z,81.20
2023-01-07T06:46:54.030Z,81.03
2023-01-07T06:49:55.903Z,80.97
2023-01-07T06:52:57.820Z,80.93
2023-01-07T06:55:59.622Z,80.95
2023-01-07T06:59:01.439Z,81.00
2023-01-07T07:02:03.455Z,81.10
2023-01-07T07:05:05.685Z,81.15
2023-01-07T07:08:07.613Z,81.11
2023-01-07T07:11:09.428Z,80.92
2023-01-07T07:14:11.314Z,80.61
2023-01-07T07:17:13.193Z,80.31
2023-01-07T07:20:15.227Z,80.30
2023-01-07T07:23:17.160Z,80.36
2023-01-07T07:26:19.066Z,80.53
2023-01-07T07:29:21.900Z,80.62
2023-01-07T07:32:27.775Z,80.68
2023-01-07T07:35:30.311Z,80.69
2023-01-07T07:38:32.278Z,80.82
2023-01-07T07:41:34.180Z,81.07
2023-01-07T07:44:36.338Z,81.36
2023-01-07T07:47:38.193Z,81.68
2023-01-07T07:50:41.046Z,82.03
2023-01-07T07:53:43.341Z,82.34
2023-01-07T07:56:45.315Z,82.68
2023-01-07T07:59:49.494Z,82.96
2023-01-07T08:02:51.493Z,83.21
2023-01-07T08:05:53.787Z,83.43
2023-01-07T08:08:55.612Z,83.68
2023-01-07T08:11:57.458Z,83.87
2023-01-07T08:14:59.278Z,84.03
2023-01-07T08:18:04.277Z,84.17
2023-01-07T08:21:06.182Z,84.26
2023-01-07T08:24:08.194Z,84.27
2023-01-07T08:27:10.049Z,84.24
2023-01-07T08:30:12.030Z,84.21
2023-01-07T08:33:13.998Z,84.04
2023-01-07T08:36:22.502Z,83.78
2023-01-07T08:39:25.106Z,83.48
2023-01-07T08:42:27.351Z,83.26
2023-01-07T08:45:29.367Z,83.02
2023-01-07T08:48:31.201Z,82.98
2023-01-07T08:51:33.045Z,82.75
2023-01-07T08:54:34.925Z,82.49
2023-01-07T08:57:36.843Z,82.27
2023-01-07T09:00:39.389Z,82.02
2023-01-07T09:03:41.669Z,81.80
2023-01-07T09:06:43.891Z,81.54
2023-01-07T09:09:45.827Z,81.33
2023-01-07T09:12:47.783Z,81.39
2023-01-07T09:15:49.731Z,81.09
2023-01-07T09:18:51.544Z,80.86
2023-01-07T09:21:53.412Z,80.62
2023-01-07T09:24:55.306Z,80.32
2023-01-07T09:27:57.340Z,80.25
2023-01-07T09:31:00.211Z,79.84
2023-01-07T09:34:02.047Z,79.59
2023-01-07T09:37:04.306Z,79.35
2023-01-07T09:40:07.826Z,79.21
2023-01-07T09:43:18.107Z,79.33
2023-01-07T09:46:20.055Z,79.07
2023-01-07T09:49:28.819Z,78.80
2023-01-07T09:52:51.122Z,78.59
2023-01-07T09:56:11.199Z,78.52
2023-01-07T09:59:14.908Z,78.47
2023-01-07T10:02:27.143Z,78.31
2023-01-07T10:05:38.768Z,78.41
2023-01-07T10:08:53.740Z,78.06
2023-01-07T10:12:10.740Z,77.85
2023-01-07T10:15:19.433Z,77.74
2023-01-07T10:18:45.853Z,77.69
2023-01-07T10:22:18.020Z,77.65
2023-01-07T10:25:24.328Z,77.45
2023-01-07T10:28:40.242Z,77.28
2023-01-07T10:31:44.045Z,77.25
2023-01-07T10:34:55.293Z,77.37
2023-01-07T10:38:03.225Z,77.25
2023-01-07T10:41:15.601Z,77.27
2023-01-07T10:44:56.522Z,77.05
2023-01-07T10:48:20.654Z,76.96
2023-01-07T10:52:28.049Z,76.98
2023-01-07T10:55:36.317Z,76.99
2023-01-07T10:58:43.467Z,76.81
2023-01-07T11:01:50.526Z,76.73
2023-01-07T11:05:04.660Z,76.71
2023-01-07T11:08:23.149Z,76.75
2023-01-07T11:11:26.385Z,76.74
2023-01-07T11:14:35.182Z,76.78
2023-01-07T11:17:45.350Z,76.91
2023-01-07T11:21:06.451Z,77.02
2023-01-07T11:24:27.673Z,77.23
2023-01-07T11:27:37.291Z,77.32
2023-01-07T11:34:47.227Z,77.39
2023-01-07T11:37:50.890Z,77.13
2023-01-07T11:41:38.257Z,76.84
2023-01-07T11:46:27.038Z,76.32
2023-01-07T11:53:07.160Z,75.77
2023-01-07T11:56:27.604Z,75.54
2023-01-07T11:59:31.130Z,75.43
2023-01-07T12:02:34.826Z,75.16
2023-01-07T12:05:41.027Z,74.99
2023-01-07T12:09:18.977Z,74.56
2023-01-07T12:12:42.467Z,74.53
2023-01-07T12:16:04.451Z,74.41
2023-01-07T12:24:51.372Z,73.98
2023-01-07T12:28:27.339Z,73.35
2023-01-07T12:31:46.895Z,72.92
2023-01-07T12:35:14.325Z,72.39
2023-01-07T12:38:52.122Z,72.35
2023-01-07T12:42:05.146Z,71.73
2023-01-07T12:45:19.651Z,71.41
2023-01-07T12:48:33.065Z,71.14
2023-01-07T12:51:48.856Z,71.02
2023-01-07T12:55:04.303Z,70.69
2023-01-07T12:58:10.405Z,70.53
2023-01-07T13:01:36.968Z,70.52
2023-01-07T13:05:10.035Z,70.28
2023-01-07T13:08:35.205Z,70.30
2023-01-07T13:12:40.653Z,70.23
2023-01-07T13:15:39.927Z,70.58
2023-01-07T13:18:43.230Z,70.50
2023-01-07T13:21:49.796Z,70.56
2023-01-07T13:25:26.343Z,70.72
2023-01-07T13:28:57.526Z,70.81
2023-01-07T13:32:06.753Z,71.09
2023-01-07T13:35:36.751Z,71.33
2023-01-07T13:38:39.848Z,71.47
2023-01-07T13:42:08.028Z,71.41
2023-01-07T13:45:14.369Z,71.41
2023-01-07T13:48:23.400Z,71.52
2023-01-07T13:51:31.266Z,71.64
2023-01-07T13:54:50.586Z,71.74
2023-01-07T13:57:53.983Z,71.89
2023-01-07T14:01:04.945Z,71.98
2023-01-07T14:04:08.399Z,72.11
2023-01-07T14:07:11.821Z,72.21
2023-01-07T14:10:36.157Z,72.39
2023-01-07T14:13:39.359Z,72.51
2023-01-07T14:16:54.867Z,72.72
2023-01-07T14:20:16.959Z,72.90
2023-01-07T14:23:43.076Z,72.96
2023-01-07T14:27:03.563Z,73.07
2023-01-07T14:30:34.601Z,73.13
2023-01-07T14:34:22.376Z,73.21
2023-01-07T14:37:39.219Z,73.24
2023-01-07T14:41:09.549Z,73.29
2023-01-07T14:44:31.565Z,73.31
2023-01-07T14:48:18.045Z,73.31
2023-01-07T14:52:05.724Z,73.39
2023-01-07T14:55:37.889Z,73.47
2023-01-07T14:59:10.205Z,73.47
2023-01-07T15:03:11.385Z,73.40
2023-01-07T15:06:25.303Z,73.43
2023-01-07T15:10:02.591Z,73.36
2023-01-07T15:13:26.367Z,73.43
2023-01-07T15:16:34.565Z,73.48
2023-01-07T15:19:39.934Z,73.27
2023-01-07T15:22:52.571Z,73.27
2023-01-07T15:26:11.127Z,73.19
2023-01-07T15:29:26.482Z,73.26
2023-01-07T15:32:57.371Z,73.17
2023-01-07T15:36:04.384Z,73.07
2023-01-07T15:39:22.216Z,72.90
2023-01-07T15:42:27.520Z,72.98
2023-01-07T15:45:30.818Z,72.73
2023-01-07T15:48:34.316Z,72.78
2023-01-07T15:51:43.889Z,72.51
2023-01-07T15:54:47.199Z,72.23
2023-01-07T15:57:53.232Z,72.07
2023-01-07T16:01:00.230Z,72.08
2023-01-07T16:04:05.741Z,72.20
2023-01-07T16:07:22.414Z,72.16
2023-01-07T16:10:34.666Z,72.00
2023-01-07T16:13:38.122Z,71.83
2023-01-07T16:16:41.543Z,71.86
2023-01-07T16:19:44.946Z,71.77
2023-01-07T16:22:48.879Z,71.91
2023-01-07T16:26:02.903Z,71.96
2023-01-07T16:29:11.438Z,72.00
2023-01-07T16:32:16.236Z,72.36
2023-01-07T16:35:39.214Z,72.57
2023-01-07T16:38:44.904Z,72.83
2023-01-07T16:41:48.487Z,72.97
2023-01-07T16:53:49.147Z,72.64
2023-01-07T16:57:11.935Z,72.66
2023-01-07T17:00:20.342Z,72.70
2023-01-07T17:03:25.349Z,72.43
2023-01-07T17:06:39.762Z,72.31
2023-01-07T17:09:43.021Z,72.26
2023-01-07T17:13:15.275Z,72.51
2023-01-07T17:16:32.794Z,72.84
2023-01-07T17:19:41.470Z,72.66
2023-01-07T17:22:45.829Z,72.50
2023-01-07T17:25:55.391Z,72.47
2023-01-07T17:29:12.948Z,72.32
2023-01-07T17:32:16.751Z,72.18
2023-01-07T17:35:22.326Z,72.09
2023-01-07T17:38:28.071Z,72.19
2023-01-07T17:41:54.604Z,72.54
2023-01-07T17:44:57.846Z,72.64
2023-01-07T17:48:01.504Z,72.45
2023-01-07T17:51:05.769Z,72.40
2023-01-07T17:54:17.971Z,72.47
2023-01-07T17:57:21.218Z,72.23
2023-01-07T18:00:27.320Z,72.29
2023-01-07T18:03:30.583Z,72.32
2023-01-07T18:06:35.804Z,72.23
2023-01-07T18:09:42.154Z,72.32
2023-01-07T18:12:46.346Z,72.43
2023-01-07T18:15:49.555Z,72.65
2023-01-07T18:18:53.216Z,73.00
2023-01-07T18:21:56.505Z,72.98
2023-01-07T18:24:59.678Z,72.86
2023-01-07T18:28:04.340Z,72.66
2023-01-07T18:31:08.093Z,72.54
2023-01-07T18:34:13.240Z,72.40
2023-01-07T18:37:17.820Z,72.31
2023-01-07T18:40:21.279Z,72.32
2023-01-07T18:43:24.735Z,72.28
2023-01-07T18:46:28.127Z,72.29
2023-01-07T18:49:31.346Z,72.26
2023-01-07T18:52:34.652Z,72.43
2023-01-07T18:55:40.094Z,72.61
2023-01-07T18:58:44.356Z,72.68
2023-01-07T19:01:47.963Z,72.59
2023-01-07T19:04:51.299Z,72.53
2023-01-07T19:07:55.539Z,72.57
2023-01-07T19:10:58.846Z,72.60
2023-01-07T19:14:02.090Z,72.66
2023-01-07T19:17:05.834Z,72.72
2023-01-07T19:20:10.151Z,72.83
2023-01-07T19:23:17.593Z,73.01
2023-01-07T19:26:21.605Z,73.17
2023-01-07T19:29:24.868Z,73.38
2023-01-07T19:32:30.500Z,73.50
2023-01-07T19:35:33.816Z,73.76
2023-01-07T19:38:41.780Z,74.13
2023-01-07T19:41:45.415Z,74.89
2023-01-07T19:44:48.725Z,75.37
2023-01-07T19:47:51.970Z,75.75
2023-01-07T19:50:57.619Z,75.61
2023-01-07T19:54:01.353Z,75.44
2023-01-07T19:57:04.783Z,75.23
2023-01-07T20:00:08.694Z,75.09
2023-01-07T20:03:11.937Z,74.92
2023-01-07T20:06:17.755Z,74.80
2023-01-07T20:09:22.939Z,74.86
2023-01-07T20:12:28.265Z,74.80
2023-01-07T20:15:32.013Z,74.65
2023-01-07T20:18:42.364Z,74.66
2023-01-07T20:21:46.797Z,74.56
2023-01-07T20:24:50.050Z,74.90
2023-01-07T20:27:53.267Z,75.35
2023-01-07T20:30:56.517Z,75.88
2023-01-07T20:34:00.780Z,76.11
2023-01-07T20:37:04.607Z,76.35
2023-01-07T20:40:08.765Z,76.60
2023-01-07T20:43:12.859Z,76.82
2023-01-07T20:46:16.244Z,77.02
2023-01-07T20:49:19.476Z,76.94
2023-01-07T20:52:22.685Z,76.94
2023-01-07T20:55:25.953Z,77.05
2023-01-07T20:58:34.663Z,77.12
2023-01-07T21:01:38.261Z,77.27
2023-01-07T21:04:41.603Z,77.17
2023-01-07T21:07:44.799Z,77.03
2023-01-07T21:10:48.035Z,77.12
2023-01-07T21:13:52.234Z,77.21
2023-01-07T21:16:55.451Z,77.26
2023-01-07T21:19:58.662Z,77.28
2023-01-07T21:23:02.014Z,77.31
2023-01-07T21:26:06.948Z,77.40
2023-01-07T21:29:10.181Z,77.46
2023-01-07T21:32:13.589Z,77.42
2023-01-07T21:35:16.811Z,77.43
2023-01-07T21:38:20.113Z,77.44
2023-01-07T21:41:29.032Z,77.46
2023-01-07T21:44:34.160Z,77.55
2023-01-07T21:47:37.435Z,77.61
2023-01-07T21:50:40.675Z,77.65
2023-01-07T21:53:44.109Z,77.66
2023-01-07T21:56:47.313Z,77.72
2023-01-07T21:59:50.666Z,77.77
2023-01-07T22:02:53.857Z,77.80
2023-01-07T22:06:05.319Z,77.84
2023-01-07T22:09:13.014Z,77.94
2023-01-07T22:12:16.382Z,77.95
2023-01-07T22:15:19.668Z,77.97
2023-01-07T22:18:22.949Z,78.03
2023-01-07T22:21:26.336Z,78.07
2023-01-07T22:24:29.863Z,77.97
2023-01-07T22:27:33.122Z,77.91
2023-01-07T22:30:39.719Z,77.96
2023-01-07T22:33:42.932Z,77.98
2023-01-07T22:37:11.172Z,77.99
2023-01-07T22:40:14.581Z,78.00
2023-01-07T22:43:21.032Z,77.98
2023-01-07T22:46:29.202Z,77.99
2023-01-07T22:49:33.092Z,77.97
2023-01-07T22:52:38.057Z,78.00
2023-01-07T22:55:41.205Z,78.02
2023-01-07T22:58:44.640Z,77.99
2023-01-07T23:01:47.860Z,78.01
2023-01-07T23:04:51.017Z,78.06
2023-01-07T23:07:54.250Z,78.11
2023-01-07T23:10:57.497Z,78.12
2023-01-07T23:14:00.731Z,78.08
2023-01-07T23:17:04.160Z,78.09
2023-01-07T23:20:07.731Z,78.07
2023-01-07T23:23:12.485Z,78.06
2023-01-07T23:26:16.255Z,78.05
2023-01-07T23:29:20.111Z,78.05
2023-01-07T23:32:23.384Z,78.04
2023-01-07T23:35:26.689Z,78.02
2023-01-07T23:38:29.952Z,78.00
2023-01-07T23:41:33.323Z,77.99
2023-01-07T23:44:36.536Z,77.98
2023-01-07T23:47:39.755Z,77.96
2023-01-07T23:50:42.985Z,77.96
2023-01-07T23:53:46.928Z,77.93
2023-01-07T23:56:51.013Z,77.91
2023-01-07T23:59:54.268Z,77.91
